Azure — ZCEE2 — position and weather

sailwx.info

Track history (hours):
 
Tides and Currents Weather Stations Pressure Air Temp Water Temp Dewpoint Dewpoint Depression Visibility Wind Speed Wind Dir Waves Ship Positions

Azure

Last reported at 2015-Mar-30 22:34 UTC. Time now 2015-Mar-30 23:00 UTC.
Position N 38°18' W 024°11'.

Length 289 m; draft 8.6 m.

Type: Ship. MMSI: 310610000.

Date/timePositionNaut miles runAvg speedWind from/ knotsBaromVisibWave heightAir tempDewpointWater temp
2015-Mar-30 22:34N 38°18' W 024°11'1716.7
2015-Mar-30 21:33N 38°08' W 024°27'1717.0
2015-Mar-30 20:33N 37°57' W 024°44'1817.5
2015-Mar-30 19:33N 37°46' W 025°01'1717.1
2015-Mar-30 18:33N 37°41' W 025°22'1413.9
2015-Mar-30 17:33N 37°44' W 025°39'1 0.6
2015-Mar-30 16:33N 37°44' W 025°40'0 0.0
2015-Mar-30 15:32N 37°44' W 025°40'0 0.0
2015-Mar-30 14:32N 37°44' W 025°40'0 0.0
2015-Mar-30 13:31N 37°44' W 025°40'0 0.0
2015-Mar-30 12:31N 37°44' W 025°40'0 0.0
2015-Mar-30 11:33N 37°44' W 025°40'0 0.0
2015-Mar-30 10:33N 37°44' W 025°40'0 0.3
2015-Mar-30 09:34N 37°44' W 025°39'1312.6
2015-Mar-30 08:33N 37°37' W 025°52'2120.8
2015-Mar-30 07:33N 37°29' W 026°17'2019.9
2015-Mar-30 06:33N 37°22' W 026°40'2019.7
2015-Mar-30 05:33N 37°15' W 027°03'2020.0
2015-Mar-30 04:33N 37°08' W 027°26'2020.1
2015-Mar-30 03:33N 37°00' W 027°50'2020.2
2015-Mar-30 02:33N 36°53' W 028°13'2020.2
2015-Mar-30 01:33N 36°45' W 028°36'2020.2
2015-Mar-30 00:33N 36°37' W 028°60'2019.9
2015-Mar-29 23:33N 36°29' W 029°23'2019.9
2015-Mar-29 22:32N 36°21' W 029°46'1919.6
2015-Mar-29 21:33N 36°14' W 030°08'2019.8
2015-Mar-29 20:33N 36°06' W 030°30'8219.1
2015-Mar-29 16:16N 35°32' W 032°03'32518.8
2015-Mar-28 23:00N 33°06' W 037°54'34017.9 070 / 151026.9 5.4 2.018.512.220.0
2015-Mar-28 04:00N 30°18' W 043°42'10414.8 040 / 201028.510.8 18.0 7.121.0
2015-Mar-27 21:00N 29°24' W 045°24'6020.1 040 / 251026.310.8 1.518.5 9.024.0
2015-Mar-27 18:00N 28°54' W 046°24'   030 / 231025.010.8 3.019.0 8.522.0
2015-Mar-25 06:00N 19°18' W 061°00'155 3.4 090 / 121018.010.8 24.519.926.0
2015-Mar-23 09:00N 16°54' W 062°00'   090 / 231019.310.8 25.020.427.0
Track history (hours):
 
Tides and Currents Weather Stations Pressure Air Temp Water Temp Dewpoint Dewpoint Depression Visibility Wind Speed Wind Dir Waves Ship Positions

Azure

Last reported at 2015-Mar-30 22:34 UTC. Time now 2015-Mar-30 23:00 UTC.
Position N 38°18' W 024°11'.

Length 289 m; draft 8.6 m.

Type: Ship. MMSI: 310610000.

Date/timePositionNaut miles runAvg speedWind from/ knotsBaromVisibWave heightAir tempDewpointWater temp
2015-Mar-30 22:34N 38°18' W 024°11'1716.7
2015-Mar-30 21:33N 38°08' W 024°27'1717.0
2015-Mar-30 20:33N 37°57' W 024°44'1817.5
2015-Mar-30 19:33N 37°46' W 025°01'1717.1
2015-Mar-30 18:33N 37°41' W 025°22'1413.9
2015-Mar-30 17:33N 37°44' W 025°39'1 0.6
2015-Mar-30 16:33N 37°44' W 025°40'0 0.0
2015-Mar-30 15:32N 37°44' W 025°40'0 0.0
2015-Mar-30 14:32N 37°44' W 025°40'0 0.0
2015-Mar-30 13:31N 37°44' W 025°40'0 0.0
2015-Mar-30 12:31N 37°44' W 025°40'0 0.0
2015-Mar-30 11:33N 37°44' W 025°40'0 0.0
2015-Mar-30 10:33N 37°44' W 025°40'0 0.3
2015-Mar-30 09:34N 37°44' W 025°39'1312.6
2015-Mar-30 08:33N 37°37' W 025°52'2120.8
2015-Mar-30 07:33N 37°29' W 026°17'2019.9
2015-Mar-30 06:33N 37°22' W 026°40'2019.7
2015-Mar-30 05:33N 37°15' W 027°03'2020.0
2015-Mar-30 04:33N 37°08' W 027°26'2020.1
2015-Mar-30 03:33N 37°00' W 027°50'2020.2
2015-Mar-30 02:33N 36°53' W 028°13'2020.2
2015-Mar-30 01:33N 36°45' W 028°36'2020.2
2015-Mar-30 00:33N 36°37' W 028°60'2019.9
2015-Mar-29 23:33N 36°29' W 029°23'2019.9
2015-Mar-29 22:32N 36°21' W 029°46'1919.6
2015-Mar-29 21:33N 36°14' W 030°08'2019.8
2015-Mar-29 20:33N 36°06' W 030°30'8219.1
2015-Mar-29 16:16N 35°32' W 032°03'32518.8
2015-Mar-28 23:00N 33°06' W 037°54'34017.9 070 / 151026.9 5.4 2.018.512.220.0
2015-Mar-28 04:00N 30°18' W 043°42'10414.8 040 / 201028.510.8 18.0 7.121.0
2015-Mar-27 21:00N 29°24' W 045°24'6020.1 040 / 251026.310.8 1.518.5 9.024.0
2015-Mar-27 18:00N 28°54' W 046°24'   030 / 231025.010.8 3.019.0 8.522.0
2015-Mar-25 06:00N 19°18' W 061°00'155 3.4 090 / 121018.010.8 24.519.926.0
2015-Mar-23 09:00N 16°54' W 062°00'   090 / 231019.310.8 25.020.427.0

Dump ship's entire track history